createdAt,value
2018-11-02T00:01:29.275Z,98708.97
2018-11-02T00:03:57.480Z,98720.53
2018-11-02T00:06:25.659Z,98722.84
2018-11-02T00:08:53.960Z,98730.94
2018-11-02T00:11:22.065Z,98738.90
2018-11-02T00:13:51.480Z,98735.91
2018-11-02T00:16:19.724Z,98735.05
2018-11-02T00:18:47.808Z,98696.72
2018-11-02T00:21:15.883Z,98666.69
2018-11-02T00:23:43.962Z,98653.55
2018-11-02T00:26:12.060Z,98677.05
2018-11-02T00:28:40.121Z,98697.45
2018-11-02T00:31:08.234Z,98701.06
2018-11-02T00:33:36.370Z,98706.02
2018-11-02T00:36:04.448Z,98715.31
2018-11-02T00:38:32.544Z,98724.25
2018-11-02T00:41:00.651Z,98731.70
2018-11-02T00:43:28.744Z,98731.48
2018-11-02T00:45:56.840Z,98737.27
2018-11-02T00:48:24.936Z,98739.20
2018-11-02T00:50:53.004Z,98742.36
2018-11-02T00:53:21.088Z,98748.61
2018-11-02T00:55:49.153Z,98754.52
2018-11-02T00:58:17.280Z,98757.69
2018-11-02T01:00:45.348Z,98758.16
2018-11-02T01:03:13.453Z,98769.72
2018-11-02T01:05:41.556Z,98773.83
2018-11-02T01:08:09.641Z,98773.95
2018-11-02T01:10:37.704Z,98774.46
2018-11-02T01:13:05.789Z,98773.61
2018-11-02T01:15:34.701Z,98772.41
2018-11-02T01:18:02.837Z,98775.55
2018-11-02T01:20:30.947Z,98777.98
2018-11-02T01:22:58.984Z,98784.61
2018-11-02T01:25:27.052Z,98783.89
2018-11-02T01:27:55.112Z,98785.34
2018-11-02T01:30:23.202Z,98789.80
2018-11-02T01:32:51.268Z,98790.77
2018-11-02T01:35:19.353Z,98792.09
2018-11-02T01:37:47.440Z,98791.84
2018-11-02T01:40:15.496Z,98798.95
2018-11-02T01:42:43.559Z,98814.52
2018-11-02T01:45:11.620Z,98809.69
2018-11-02T01:47:39.751Z,98815.12
2018-11-02T01:50:07.863Z,98817.42
2018-11-02T01:52:35.968Z,98809.94
2018-11-02T01:55:04.617Z,98813.92
2018-11-02T01:57:32.689Z,98813.67
2018-11-02T02:00:00.844Z,98820.80
2018-11-02T02:02:28.905Z,98820.42
2018-11-02T02:04:57.204Z,98824.05
2018-11-02T02:07:25.272Z,98828.63
2018-11-02T02:09:53.336Z,98834.79
2018-11-02T02:12:21.417Z,98833.94
2018-11-02T02:14:49.450Z,98841.67
2018-11-02T02:17:17.502Z,98843.94
2018-11-02T02:19:45.579Z,98846.21
2018-11-02T02:22:13.633Z,98844.41
2018-11-02T02:24:41.674Z,98842.23
2018-11-02T02:27:09.746Z,98850.78
2018-11-02T02:29:37.839Z,98853.09
2018-11-02T02:46:19.070Z,98877.31
2018-11-02T02:48:47.165Z,98880.06
2018-11-02T02:51:15.304Z,98891.64
2018-11-02T02:53:43.417Z,98885.36
2018-11-02T02:56:11.537Z,98903.09
2018-11-02T02:58:39.681Z,98889.84
2018-11-02T03:01:07.802Z,98891.29
2018-11-02T03:03:35.908Z,98902.23
2018-11-02T03:06:04.063Z,98914.29
2018-11-02T03:08:32.166Z,98919.94
2018-11-02T03:11:00.541Z,98925.74
2018-11-02T03:13:28.407Z,98928.86
2018-11-02T03:15:56.517Z,98930.78
2018-11-02T03:18:24.643Z,98938.27
2018-11-02T03:20:52.739Z,98932.11
2018-11-02T03:23:20.824Z,98931.77
2018-11-02T03:25:48.942Z,98938.86
2018-11-02T03:28:17.085Z,98949.46
2018-11-02T03:30:45.242Z,98953.55
2018-11-02T03:33:14.432Z,98951.84
2018-11-02T03:35:42.677Z,98959.80
2018-11-02T03:38:10.805Z,98963.08
2018-11-02T03:40:38.913Z,98965.22
2018-11-02T03:43:07.075Z,98965.34
2018-11-02T03:45:35.187Z,98981.24
2018-11-02T03:48:03.297Z,98978.24
2018-11-02T03:50:31.428Z,98986.66
2018-11-02T03:52:59.587Z,98991.11
2018-11-02T03:55:27.713Z,98988.58
2018-11-02T03:57:55.842Z,98999.68
2018-11-02T04:00:24.336Z,99005.92
2018-11-02T04:02:52.481Z,99005.07
2018-11-02T04:05:20.610Z,99014.84
2018-11-02T04:07:48.813Z,99021.09
2018-11-02T04:10:16.982Z,99017.73
2018-11-02T04:12:45.145Z,99023.86
2018-11-02T04:15:13.260Z,99036.75
2018-11-02T04:17:41.495Z,99047.82
2018-11-02T04:20:10.007Z,99062.05
2018-11-02T04:22:38.118Z,99062.16
2018-11-02T04:25:06.563Z,99071.55
2018-11-02T04:27:34.682Z,99068.52
2018-11-02T04:30:02.733Z,99070.31
2018-11-02T04:32:30.789Z,99075.61
2018-11-02T04:34:58.832Z,99078.37
2018-11-02T04:37:26.989Z,99078.03
2018-11-02T04:39:55.522Z,99090.92
2018-11-02T04:42:23.584Z,99090.06
2018-11-02T04:44:51.698Z,99091.51
2018-11-02T04:47:19.798Z,99093.77
2018-11-02T04:49:47.889Z,99099.58
2018-11-02T04:52:15.960Z,99104.88
2018-11-02T04:54:44.021Z,99105.45
2018-11-02T04:57:12.091Z,99107.72
2018-11-02T04:59:40.204Z,99120.97
2018-11-02T05:02:08.281Z,99128.09
2018-11-02T05:04:36.430Z,99136.97
2018-11-02T05:07:04.813Z,99140.59
2018-11-02T05:09:32.948Z,99141.06
2018-11-02T05:12:01.062Z,99151.30
2018-11-02T05:14:29.198Z,99162.37
2018-11-02T05:16:57.310Z,99174.76
2018-11-02T05:19:25.455Z,99179.23
2018-11-02T05:21:53.566Z,99184.14
2018-11-02T05:24:21.783Z,99184.14
2018-11-02T05:26:49.893Z,99182.82
2018-11-02T05:29:18.294Z,99184.73
2018-11-02T05:31:46.354Z,99192.67
2018-11-02T05:34:14.420Z,99209.89
2018-11-02T05:36:42.489Z,99208.21
2018-11-02T05:39:12.287Z,99213.97
2018-11-02T05:41:40.463Z,99208.79
2018-11-02T05:44:08.729Z,99213.23
2018-11-02T05:46:37.003Z,99214.20
2018-11-02T05:49:05.276Z,99217.31
2018-11-02T05:51:33.452Z,99222.61
2018-11-02T05:54:01.534Z,99225.38
2018-11-02T05:56:29.697Z,99230.31
2018-11-02T05:58:57.758Z,99238.15
2018-11-02T06:01:25.814Z,99247.53
2018-11-02T06:03:53.954Z,99256.41
2018-11-02T06:06:22.024Z,99249.91
2018-11-02T06:08:50.142Z,99260.14
2018-11-02T06:11:18.198Z,99265.08
2018-11-02T06:13:46.362Z,99273.95
2018-11-02T06:16:14.441Z,99278.02
2018-11-02T06:18:42.573Z,99278.48
2018-11-02T06:21:10.609Z,99276.44
2018-11-02T06:23:38.710Z,99277.02
2018-11-02T06:26:06.752Z,99280.59
2018-11-02T06:28:34.884Z,99288.19
2018-11-02T06:31:02.954Z,99288.66
2018-11-02T06:33:31.009Z,99288.30
2018-11-02T06:35:59.086Z,99294.06
2018-11-02T06:38:27.216Z,99295.03
2018-11-02T06:40:55.256Z,99296.81
2018-11-02T06:43:23.746Z,99301.25
2018-11-02T06:45:51.892Z,99299.58
2018-11-02T06:48:19.936Z,99309.30
2018-11-02T06:50:48.057Z,99312.53
2018-11-02T06:53:16.090Z,99318.22
2018-11-02T06:55:44.680Z,99319.90
2018-11-02T06:58:12.724Z,99326.30
2018-11-02T07:00:40.771Z,99330.44
2018-11-02T07:03:08.818Z,99335.91
2018-11-02T07:05:36.878Z,99340.59
2018-11-02T07:08:05.232Z,99340.05
2018-11-02T07:10:33.095Z,99351.28
2018-11-02T07:13:01.165Z,99351.06
2018-11-02T07:15:29.245Z,99354.73
2018-11-02T07:17:57.302Z,99353.66
2018-11-02T07:20:25.403Z,99357.64
2018-11-02T07:22:53.413Z,99355.38
2018-11-02T07:25:21.513Z,99363.79
2018-11-02T07:27:49.574Z,99374.38
2018-11-02T07:30:17.758Z,99387.16
2018-11-02T07:32:46.894Z,99391.02
2018-11-02T07:35:15.013Z,99392.02
2018-11-02T07:37:43.219Z,99391.91
2018-11-02T07:40:11.894Z,99394.45
2018-11-02T07:42:40.158Z,99393.98
2018-11-02T07:45:08.858Z,99398.23
2018-11-02T07:47:36.992Z,99398.13
2018-11-02T07:50:07.362Z,99399.17
2018-11-02T07:52:35.477Z,99407.41
2018-11-02T07:55:03.665Z,99398.84
2018-11-02T07:57:31.790Z,99407.07
2018-11-02T07:59:59.897Z,99405.28
2018-11-02T08:02:28.086Z,99404.31
2018-11-02T08:04:56.207Z,99406.84
2018-11-02T08:07:24.341Z,99409.89
2018-11-02T08:09:52.448Z,99411.22
2018-11-02T08:12:20.555Z,99418.20
2018-11-02T08:14:48.846Z,99410.72
2018-11-02T08:17:16.983Z,99415.11
2018-11-02T08:19:45.107Z,99418.39
2018-11-02T08:22:13.230Z,99414.41
2018-11-02T08:24:41.399Z,99421.56
2018-11-02T08:27:09.494Z,99423.53
2018-11-02T08:29:37.612Z,99434.65
2018-11-02T08:32:05.705Z,99432.63
2018-11-02T08:34:33.740Z,99432.91
2018-11-02T08:37:01.799Z,99443.77
2018-11-02T08:39:29.861Z,99448.02
2018-11-02T08:41:58.502Z,99456.25
2018-11-02T08:44:26.571Z,99455.42
2018-11-02T08:46:54.690Z,99458.55
2018-11-02T08:49:22.783Z,99459.92
2018-11-02T08:51:50.849Z,99460.91
2018-11-02T08:54:18.961Z,99463.73
2018-11-02T08:56:47.715Z,99465.30
2018-11-02T08:59:15.868Z,99466.67
2018-11-02T09:01:43.983Z,99462.00
2018-11-02T09:04:12.581Z,99466.50
2018-11-02T09:06:40.761Z,99473.77
2018-11-02T09:09:09.624Z,99473.19
2018-11-02T09:11:37.704Z,99476.35
2018-11-02T09:14:05.849Z,99476.95
2018-11-02T09:16:33.900Z,99476.59
2018-11-02T09:19:02.011Z,99482.25
2018-11-02T09:21:31.272Z,99491.81
2018-11-02T09:23:59.068Z,99500.98
2018-11-02T09:26:27.250Z,99499.55
2018-11-02T09:28:55.727Z,99503.41
2018-11-02T09:31:23.786Z,99504.55
2018-11-02T09:33:51.830Z,99514.94
2018-11-02T09:36:19.926Z,99512.41
2018-11-02T09:38:48.028Z,99517.02
2018-11-02T09:41:16.148Z,99509.91
2018-11-02T09:43:44.234Z,99509.88
2018-11-02T09:46:12.278Z,99524.36
2018-11-02T09:48:40.319Z,99528.34
2018-11-02T09:51:08.410Z,99529.20
2018-11-02T09:53:36.456Z,99529.83
2018-11-02T09:56:04.617Z,99530.06
2018-11-02T09:58:32.666Z,99532.25
2018-11-02T10:01:00.721Z,99541.55
2018-11-02T10:03:28.790Z,99548.06
2018-11-02T10:05:56.829Z,99558.22
2018-11-02T10:08:25.021Z,99553.15
2018-11-02T10:10:54.026Z,99559.78
2018-11-02T10:13:22.109Z,99557.60
2018-11-02T10:15:50.178Z,99554.95
2018-11-02T10:18:18.269Z,99555.69
2018-11-02T10:20:46.329Z,99559.20
2018-11-02T10:23:14.410Z,99559.67
2018-11-02T10:25:42.499Z,99564.16
2018-11-02T10:28:10.559Z,99562.33
2018-11-02T10:30:38.723Z,99564.16
2018-11-02T10:33:06.884Z,99566.20
2018-11-02T10:35:35.052Z,99569.47
2018-11-02T10:38:03.464Z,99576.11
2018-11-02T10:40:33.222Z,99578.64
2018-11-02T10:43:04.246Z,99580.09
2018-11-02T10:45:35.336Z,99580.91
2018-11-02T10:48:04.746Z,99582.75
2018-11-02T10:50:32.894Z,99587.20
2018-11-02T10:53:01.089Z,99592.62
2018-11-02T10:55:29.330Z,99595.27
2018-11-02T10:57:57.500Z,99589.69
2018-11-02T11:00:31.155Z,99588.48
2018-11-02T11:02:59.236Z,99598.74
2018-11-02T11:05:27.457Z,99601.87
2018-11-02T11:07:55.668Z,99609.47
2018-11-02T11:10:23.815Z,99612.20
2018-11-02T11:12:52.388Z,99614.04
2018-11-02T11:15:20.182Z,99620.67
2018-11-02T11:17:48.313Z,99616.70
2018-11-02T11:20:16.526Z,99623.80
2018-11-02T11:22:44.805Z,99624.77
2018-11-02T11:25:14.432Z,99629.11
2018-11-02T11:27:42.553Z,99629.00
2018-11-02T11:30:13.963Z,99634.06
2018-11-02T11:32:42.118Z,99632.34
2018-11-02T11:35:11.922Z,99628.12
2018-11-02T11:37:40.488Z,99630.66
2018-11-02T11:40:10.635Z,99637.30
2018-11-02T11:42:38.785Z,99634.17
2018-11-02T11:45:08.202Z,99629.05
2018-11-02T11:47:36.613Z,99633.97
2018-11-02T11:50:08.333Z,99639.75
2018-11-02T11:52:36.533Z,99634.44
2018-11-02T11:55:05.052Z,99636.35
2018-11-02T11:57:33.278Z,99640.33
2018-11-02T12:00:01.512Z,99640.45
2018-11-02T12:02:29.841Z,99645.00
2018-11-02T12:04:58.014Z,99651.28
2018-11-02T12:07:26.202Z,99650.53
2018-11-02T12:09:54.380Z,99654.62
2018-11-02T12:12:22.672Z,99655.95
2018-11-02T12:14:50.877Z,99659.19
2018-11-02T12:17:18.929Z,99660.16
2018-11-02T12:19:46.965Z,99660.27
2018-11-02T12:22:15.025Z,99653.73
2018-11-02T12:24:43.209Z,99648.16
2018-11-02T12:27:11.283Z,99654.32
2018-11-02T12:29:39.334Z,99652.24
2018-11-02T12:32:07.482Z,99651.39
2018-11-02T12:34:35.589Z,99654.66
2018-11-02T12:37:03.756Z,99656.91
2018-11-02T12:39:31.849Z,99653.51
2018-11-02T12:42:00.013Z,99654.01
2018-11-02T12:44:28.106Z,99650.61
2018-11-02T12:46:56.305Z,99662.66
2018-11-02T12:49:24.761Z,99659.25
2018-11-02T12:51:52.553Z,99667.32
2018-11-02T12:54:20.699Z,99669.58
2018-11-02T12:56:48.822Z,99674.64
2018-11-02T12:59:16.928Z,99676.08
2018-11-02T13:01:45.065Z,99678.44
2018-11-02T13:04:13.180Z,99682.17
2018-11-02T13:06:41.421Z,99691.06
2018-11-02T13:09:10.115Z,99688.52
2018-11-02T13:11:38.300Z,99695.36
2018-11-02T13:14:06.406Z,99694.14
2018-11-02T13:16:35.079Z,99691.59
2018-11-02T13:19:04.171Z,99698.34
2018-11-02T13:21:32.445Z,99693.97
2018-11-02T13:24:00.835Z,99696.72
2018-11-02T13:26:29.355Z,99700.45
2018-11-02T13:28:57.331Z,99700.05
2018-11-02T13:31:25.532Z,99703.49
2018-11-02T13:33:53.577Z,99698.87
2018-11-02T13:36:21.781Z,99714.31
2018-11-02T13:38:49.902Z,99710.44
2018-11-02T13:41:18.017Z,99714.48
2018-11-02T13:43:46.462Z,99716.28
2018-11-02T13:46:14.784Z,99722.55
2018-11-02T13:48:43.347Z,99718.28
2018-11-02T13:51:11.777Z,99712.12
2018-11-02T13:53:40.232Z,99711.76
2018-11-02T13:56:08.324Z,99716.30
2018-11-02T13:58:36.478Z,99718.59
2018-11-02T14:01:04.591Z,99726.16
2018-11-02T14:03:32.747Z,99730.63
2018-11-02T14:06:01.143Z,99736.14
2018-11-02T14:08:29.385Z,99739.72
2018-11-02T14:10:57.787Z,99740.19
2018-11-02T14:13:26.436Z,99740.69
2018-11-02T14:15:55.007Z,99742.95
2018-11-02T14:18:23.249Z,99740.39
2018-11-02T14:20:52.423Z,99750.14
2018-11-02T14:23:20.598Z,99760.27
2018-11-02T14:25:48.758Z,99767.38
2018-11-02T14:28:17.495Z,99777.14
2018-11-02T14:30:46.034Z,99786.13
2018-11-02T14:33:14.273Z,99794.08
2018-11-02T14:35:42.478Z,99798.55
2018-11-02T14:38:10.622Z,99793.72
2018-11-02T14:40:38.713Z,99803.00
2018-11-02T14:43:07.446Z,99809.23
2018-11-02T14:45:35.562Z,99812.84
2018-11-02T14:48:03.669Z,99813.80
2018-11-02T14:50:31.726Z,99812.94
2018-11-02T14:52:59.806Z,99818.81
2018-11-02T14:55:27.858Z,99820.99
2018-11-02T14:57:55.943Z,99829.31
2018-11-02T15:00:24.001Z,99830.38
2018-11-02T15:02:52.480Z,99836.03
2018-11-02T15:05:20.561Z,99838.69
2018-11-02T15:07:48.720Z,99842.56
2018-11-02T15:10:16.822Z,99840.67
2018-11-02T15:12:44.985Z,99841.53
2018-11-02T15:15:13.080Z,99844.55
2018-11-02T15:17:41.414Z,99843.69
2018-11-02T15:20:12.659Z,99846.27
2018-11-02T15:22:40.818Z,99851.94
2018-11-02T15:25:09.292Z,99862.90
2018-11-02T15:27:37.390Z,99861.58
2018-11-02T15:30:08.965Z,99862.80
2018-11-02T15:32:37.285Z,99862.34
2018-11-02T15:35:06.361Z,99861.97
2018-11-02T15:37:34.418Z,99861.88
2018-11-02T15:40:02.496Z,99858.75
2018-11-02T15:42:30.594Z,99862.23
2018-11-02T15:44:58.741Z,99858.16
2018-11-02T15:47:26.905Z,99860.34
2018-11-02T15:49:55.017Z,99863.00
2018-11-02T15:52:23.186Z,99861.57
2018-11-02T15:54:51.326Z,99863.75
2018-11-02T15:57:19.445Z,99865.08
2018-11-02T15:59:47.566Z,99864.22
2018-11-02T16:02:15.686Z,99865.94
2018-11-02T16:04:43.869Z,99872.83
2018-11-02T16:07:12.006Z,99871.91
2018-11-02T16:09:40.194Z,99866.86
2018-11-02T16:12:08.410Z,99871.50
2018-11-02T16:14:36.529Z,99873.05
2018-11-02T16:17:05.057Z,99885.14
2018-11-02T16:19:33.291Z,99889.42
2018-11-02T16:22:01.418Z,99885.13
2018-11-02T16:24:30.329Z,99879.63
2018-11-02T16:26:58.639Z,99894.41
2018-11-02T16:29:26.769Z,99895.63
2018-11-02T16:31:54.880Z,99905.11
2018-11-02T16:34:23.097Z,99908.48
2018-11-02T16:36:52.037Z,99915.77
2018-11-02T16:39:20.144Z,99925.14
2018-11-02T16:41:48.252Z,99921.36
2018-11-02T16:44:16.451Z,99914.98
2018-11-02T16:46:44.521Z,99913.66
2018-11-02T16:49:13.885Z,99920.69
2018-11-02T16:51:42.434Z,99928.44
2018-11-02T16:54:10.872Z,99932.61
2018-11-02T16:56:39.035Z,99937.61
2018-11-02T16:59:07.136Z,99940.52
2018-11-02T17:01:35.298Z,99948.98
2018-11-02T17:04:03.474Z,99953.22
2018-11-02T17:06:31.624Z,99961.08
2018-11-02T17:08:59.738Z,99969.80
2018-11-02T17:11:27.902Z,99969.05
2018-11-02T17:13:56.064Z,99969.80
2018-11-02T17:16:24.179Z,99975.48
2018-11-02T17:18:52.290Z,99976.34
2018-11-02T17:21:20.489Z,99989.51
2018-11-02T17:23:48.628Z,99986.02
2018-11-02T17:26:16.764Z,99988.18
2018-11-02T17:28:44.881Z,100002.21
2018-11-02T17:31:13.018Z,100009.25
2018-11-02T17:33:41.088Z,100014.05
2018-11-02T17:36:09.132Z,100016.64
2018-11-02T17:38:37.274Z,100021.28
2018-11-02T17:41:05.994Z,100026.13
2018-11-02T17:43:34.082Z,100028.78
2018-11-02T17:46:02.416Z,100034.84
2018-11-02T17:48:31.490Z,100033.78
2018-11-02T17:51:00.875Z,100043.73
2018-11-02T17:53:30.063Z,100049.34
2018-11-02T17:55:58.286Z,100041.38
2018-11-02T17:58:26.619Z,100045.82
2018-11-02T18:00:54.801Z,100047.34
2018-11-02T18:03:23.131Z,100051.22
2018-11-02T18:05:51.237Z,100045.91
2018-11-02T18:08:20.333Z,100054.70
2018-11-02T18:10:48.853Z,100058.62
2018-11-02T18:13:17.191Z,100057.45
2018-11-02T18:15:45.633Z,100066.73
2018-11-02T18:18:13.855Z,100065.69
2018-11-02T18:20:42.108Z,100062.91
2018-11-02T18:23:11.272Z,100067.52
2018-11-02T18:25:39.384Z,100071.63
2018-11-02T18:28:07.436Z,100070.81
2018-11-02T18:30:35.511Z,100074.70
2018-11-02T18:33:03.586Z,100083.64
2018-11-02T18:35:31.884Z,100086.45
2018-11-02T18:37:59.996Z,100091.28
2018-11-02T18:40:28.440Z,100095.53
2018-11-02T18:42:56.669Z,100102.94
2018-11-02T18:45:24.765Z,100103.69
2018-11-02T18:47:52.907Z,100102.26
2018-11-02T18:50:22.251Z,100105.58
2018-11-02T18:52:50.646Z,100109.19
2018-11-02T18:55:19.426Z,100115.55
2018-11-02T18:57:47.562Z,100112.63
2018-11-02T19:00:15.903Z,100116.72
2018-11-02T19:02:44.090Z,100119.08
2018-11-02T19:05:16.919Z,100111.67
2018-11-02T19:07:45.290Z,100110.55
2018-11-02T19:10:13.428Z,100125.73
2018-11-02T19:12:42.141Z,100137.98
2018-11-02T19:15:14.916Z,100141.21
2018-11-02T19:17:43.201Z,100142.17
2018-11-02T19:20:11.962Z,100143.87
2018-11-02T19:22:40.347Z,100138.30
2018-11-02T19:25:09.786Z,100139.69
2018-11-02T19:27:37.991Z,100142.94
2018-11-02T19:30:07.759Z,100143.97
2018-11-02T19:32:35.884Z,100139.63
2018-11-02T19:35:04.295Z,100151.67
2018-11-02T19:37:32.270Z,100151.78
2018-11-02T19:40:00.473Z,100153.17
2018-11-02T19:42:29.045Z,100164.75
2018-11-02T19:44:57.631Z,100162.20
2018-11-02T19:47:29.910Z,100172.63
2018-11-02T19:49:58.023Z,100173.02
2018-11-02T19:52:26.937Z,100169.11
2018-11-02T19:54:55.055Z,100177.73
2018-11-02T19:57:23.128Z,100182.31
2018-11-02T19:59:51.174Z,100182.97
2018-11-02T20:02:19.266Z,100188.34
2018-11-02T20:04:47.353Z,100179.32
2018-11-02T20:07:15.450Z,100182.47
2018-11-02T20:09:43.521Z,100184.36
2018-11-02T20:12:11.574Z,100184.45
2018-11-02T20:14:39.680Z,100181.50
2018-11-02T20:17:07.798Z,100180.27
2018-11-02T20:19:35.896Z,100186.64
2018-11-02T20:22:03.946Z,100188.12
2018-11-02T20:24:32.046Z,100187.86
2018-11-02T20:27:00.112Z,100195.05
2018-11-02T20:29:28.213Z,100192.69
2018-11-02T20:31:56.457Z,100196.00
2018-11-02T20:34:24.550Z,100197.52
2018-11-02T20:36:52.725Z,100193.33
2018-11-02T20:39:20.983Z,100191.61
2018-11-02T20:41:49.988Z,100198.43
2018-11-02T20:44:18.102Z,100198.98
2018-11-02T20:46:46.217Z,100193.41
2018-11-02T20:49:14.428Z,100188.76
2018-11-02T20:51:42.550Z,100185.43
2018-11-02T20:54:10.786Z,100194.91
2018-11-02T20:56:38.965Z,100196.33
2018-11-02T20:59:07.077Z,100204.94
2018-11-02T21:01:35.802Z,100201.51
2018-11-02T21:04:03.979Z,100194.11
2018-11-02T21:08:59.537Z,100195.31
2018-11-02T21:11:27.743Z,100197.20
2018-11-02T21:13:55.972Z,100203.15
2018-11-02T21:16:24.522Z,100202.01
2018-11-02T21:18:52.876Z,100206.05
2018-11-02T21:21:21.263Z,100209.28
2018-11-02T21:23:49.361Z,100205.86
2018-11-02T21:26:17.578Z,100221.86
2018-11-02T21:28:45.726Z,100219.77
2018-11-02T21:31:13.879Z,100224.30
2018-11-02T21:33:42.143Z,100223.16
2018-11-02T21:36:10.383Z,100216.31
2018-11-02T21:38:39.087Z,100230.98
2018-11-02T21:41:07.289Z,100236.46
2018-11-02T21:43:35.881Z,100236.46
2018-11-02T21:46:04.083Z,100237.10
2018-11-02T21:48:32.638Z,100231.98
2018-11-02T21:51:00.809Z,100236.05
2018-11-02T21:53:28.995Z,100235.28
2018-11-02T21:55:57.198Z,100236.69
2018-11-02T21:58:25.640Z,100232.03
2018-11-02T22:00:53.759Z,100239.58
2018-11-02T22:03:21.893Z,100244.50
2018-11-02T22:05:50.417Z,100255.66
2018-11-02T22:08:19.485Z,100249.30
2018-11-02T22:10:47.666Z,100241.89
2018-11-02T22:13:15.835Z,100246.05
2018-11-02T22:15:44.118Z,100247.55
2018-11-02T22:18:12.276Z,100250.66
2018-11-02T22:20:40.828Z,100248.10
2018-11-02T22:23:08.986Z,100249.60
2018-11-02T22:25:37.136Z,100253.17
2018-11-02T22:28:05.667Z,100247.59
2018-11-02T22:30:33.818Z,100245.48
2018-11-02T22:33:03.112Z,100249.52
2018-11-02T22:35:31.245Z,100251.84
2018-11-02T22:37:59.352Z,100260.34
2018-11-02T22:40:27.557Z,100253.43
2018-11-02T22:42:55.718Z,100256.25
2018-11-02T22:45:23.839Z,100261.14
2018-11-02T22:47:57.266Z,100268.72
2018-11-02T22:50:25.333Z,100263.59
2018-11-02T22:52:53.516Z,100268.02
2018-11-02T22:55:22.256Z,100263.68
2018-11-02T22:57:50.345Z,100260.34
2018-11-02T23:00:19.303Z,100265.77
2018-11-02T23:02:48.118Z,100267.59
2018-11-02T23:05:16.640Z,100265.08
2018-11-02T23:07:45.079Z,100258.95
2018-11-02T23:10:13.210Z,100262.60
2018-11-02T23:12:41.930Z,100255.61
2018-11-02T23:15:10.924Z,100261.08
2018-11-02T23:17:39.358Z,100256.70
2018-11-02T23:20:09.549Z,100262.53
2018-11-02T23:22:37.679Z,100260.52
2018-11-02T23:25:06.853Z,100261.55
2018-11-02T23:27:35.235Z,100268.63
2018-11-02T23:30:03.533Z,100269.58
2018-11-02T23:32:31.875Z,100272.39
2018-11-02T23:35:00.006Z,100265.91
2018-11-02T23:37:28.220Z,100270.38
2018-11-02T23:39:56.451Z,100271.83
2018-11-02T23:42:24.611Z,100276.75
2018-11-02T23:44:52.805Z,100278.32
2018-11-02T23:47:20.929Z,100277.91
2018-11-02T23:49:49.117Z,100286.42
2018-11-02T23:52:17.266Z,100286.97
2018-11-02T23:54:45.497Z,100291.02
2018-11-02T23:57:13.680Z,100289.37
2018-11-02T23:59:41.945Z,100285.56
